createdAt,value
2017-11-15T00:00:45.578Z,1020.06
2017-11-15T00:01:45.245Z,1020.14
2017-11-15T00:02:45.216Z,1020.14
2017-11-15T00:03:45.188Z,1020.19
2017-11-15T00:04:45.164Z,1020.22
2017-11-15T00:05:45.141Z,1020.17
2017-11-15T00:06:45.359Z,1020.19
2017-11-15T00:07:45.079Z,1020.19
2017-11-15T00:08:45.050Z,1020.22
2017-11-15T00:09:45.025Z,1020.24
2017-11-15T00:10:44.995Z,1020.18
2017-11-15T00:11:44.973Z,1020.20
2017-11-15T00:12:44.942Z,1020.20
2017-11-15T00:13:44.920Z,1020.20
2017-11-15T00:14:44.889Z,1020.19
2017-11-15T00:15:44.859Z,1020.19
2017-11-15T00:16:44.832Z,1020.16
2017-11-15T00:17:44.815Z,1020.16
2017-11-15T00:18:44.771Z,1020.20
2017-11-15T00:19:44.755Z,1020.20
2017-11-15T00:20:44.724Z,1020.12
2017-11-15T00:21:44.689Z,1020.21
2017-11-15T00:22:44.660Z,1020.26
2017-11-15T00:23:44.635Z,1020.19
2017-11-15T00:24:44.858Z,1020.29
2017-11-15T00:25:44.579Z,1020.28
2017-11-15T00:26:44.552Z,1020.21
2017-11-15T00:27:44.522Z,1020.28
2017-11-15T00:28:44.499Z,1020.28
2017-11-15T00:29:44.471Z,1020.30
2017-11-15T00:30:44.446Z,1020.35
2017-11-15T00:31:44.409Z,1020.35
2017-11-15T00:32:44.383Z,1020.32
2017-11-15T00:33:44.359Z,1020.39
2017-11-15T00:34:44.333Z,1020.35
2017-11-15T00:35:44.300Z,1020.42
2017-11-15T00:36:44.278Z,1020.35
2017-11-15T00:37:44.243Z,1020.35
2017-11-15T00:38:44.219Z,1020.41
2017-11-15T00:39:44.191Z,1020.32
2017-11-15T00:40:44.170Z,1020.40
2017-11-15T00:41:44.128Z,1020.39
2017-11-15T00:42:44.105Z,1020.40
2017-11-15T00:43:44.088Z,1020.35
2017-11-15T00:44:44.048Z,1020.22
2017-11-15T00:45:44.020Z,1020.33
2017-11-15T00:46:44.003Z,1020.37
2017-11-15T00:47:43.965Z,1020.32
2017-11-15T00:48:43.934Z,1020.32
2017-11-15T00:49:43.912Z,1020.29
2017-11-15T00:50:43.886Z,1020.26
2017-11-15T00:51:43.854Z,1020.28
2017-11-15T00:52:43.833Z,1020.25
2017-11-15T00:53:43.797Z,1020.24
2017-11-15T00:54:43.779Z,1020.27
2017-11-15T00:55:43.743Z,1020.28
2017-11-15T00:56:43.715Z,1020.24
2017-11-15T00:57:43.688Z,1020.29
2017-11-15T00:58:43.659Z,1020.30
2017-11-15T00:59:43.780Z,1020.25
2017-11-15T01:00:43.599Z,1020.30
2017-11-15T01:01:43.571Z,1020.37
2017-11-15T01:02:43.553Z,1020.28
2017-11-15T01:03:43.517Z,1020.25
2017-11-15T01:04:43.495Z,1020.32
2017-11-15T01:05:43.766Z,1020.27
2017-11-15T01:06:43.441Z,1020.27
2017-11-15T01:07:43.404Z,1020.32
2017-11-15T01:08:43.381Z,1020.28
2017-11-15T01:09:43.352Z,1020.35
2017-11-15T01:10:43.322Z,1020.31
2017-11-15T01:11:43.303Z,1020.28
2017-11-15T01:12:43.266Z,1020.29
2017-11-15T01:13:43.239Z,1020.35
2017-11-15T01:14:43.218Z,1020.37
2017-11-15T01:15:43.195Z,1020.32
2017-11-15T01:16:43.159Z,1020.32
2017-11-15T01:17:43.383Z,1020.31
2017-11-15T01:18:43.105Z,1020.33
2017-11-15T01:19:43.071Z,1020.32
2017-11-15T01:20:43.053Z,1020.20
2017-11-15T01:21:43.017Z,1020.28
2017-11-15T01:22:42.988Z,1020.33
2017-11-15T01:23:42.960Z,1020.32
2017-11-15T01:24:42.941Z,1020.35
2017-11-15T01:25:42.908Z,1020.27
2017-11-15T01:26:42.880Z,1020.23
2017-11-15T01:27:42.857Z,1020.25
2017-11-15T01:28:42.824Z,1020.32
2017-11-15T01:29:42.801Z,1020.27
2017-11-15T01:30:42.765Z,1020.26
2017-11-15T01:31:42.750Z,1020.27
2017-11-15T01:32:42.717Z,1020.23
2017-11-15T01:33:42.685Z,1020.29
2017-11-15T01:34:42.713Z,1020.24
2017-11-15T01:35:42.632Z,1020.31
2017-11-15T01:36:42.602Z,1020.29
2017-11-15T01:37:42.579Z,1020.26
2017-11-15T01:38:42.544Z,1020.32
2017-11-15T01:39:42.515Z,1020.36
2017-11-15T01:40:42.796Z,1020.29
2017-11-15T01:41:42.457Z,1020.27
2017-11-15T01:42:42.433Z,1020.34
2017-11-15T01:43:42.409Z,1020.30
2017-11-15T01:44:42.380Z,1020.28
2017-11-15T01:45:42.354Z,1020.29
2017-11-15T01:46:42.324Z,1020.26
2017-11-15T01:47:42.295Z,1020.33
2017-11-15T01:48:42.269Z,1020.34
2017-11-15T01:49:42.241Z,1020.38
2017-11-15T01:50:42.218Z,1020.39
2017-11-15T01:51:42.187Z,1020.35
2017-11-15T01:52:42.426Z,1020.33
2017-11-15T01:53:42.135Z,1020.36
2017-11-15T01:54:42.102Z,1020.29
2017-11-15T01:55:42.076Z,1020.30
2017-11-15T01:56:42.047Z,1020.26
2017-11-15T01:57:42.018Z,1020.32
2017-11-15T01:58:41.985Z,1020.31
2017-11-15T01:59:41.965Z,1020.30
2017-11-15T02:00:41.934Z,1020.29
2017-11-15T02:01:41.908Z,1020.19
2017-11-15T02:02:41.878Z,1020.23
2017-11-15T02:03:42.104Z,1020.23
2017-11-15T02:04:41.827Z,1020.18
2017-11-15T02:05:41.792Z,1020.23
2017-11-15T02:06:41.767Z,1020.18
2017-11-15T02:07:41.740Z,1020.16
2017-11-15T02:08:41.713Z,1020.23
2017-11-15T02:09:41.689Z,1020.25
2017-11-15T02:10:41.653Z,1020.24
2017-11-15T02:11:41.625Z,1020.18
2017-11-15T02:12:41.601Z,1020.22
2017-11-15T02:13:41.576Z,1020.16
2017-11-15T02:14:41.545Z,1020.22
2017-11-15T02:15:41.513Z,1020.23
2017-11-15T02:16:41.493Z,1020.25
2017-11-15T02:17:41.457Z,1020.08
2017-11-15T02:18:41.432Z,1020.27
2017-11-15T02:19:41.406Z,1020.26
2017-11-15T02:20:41.378Z,1020.25
2017-11-15T02:21:41.655Z,1020.19
2017-11-15T02:22:41.321Z,1020.15
2017-11-15T02:23:41.293Z,1020.16
2017-11-15T02:24:41.271Z,1020.15
2017-11-15T02:25:41.240Z,1020.07
2017-11-15T02:26:41.250Z,1020.11
2017-11-15T02:27:41.185Z,1020.00
2017-11-15T02:28:41.157Z,1020.04
2017-11-15T02:29:41.134Z,1020.11
2017-11-15T02:30:41.095Z,1020.01
2017-11-15T02:31:41.071Z,1019.94
2017-11-15T02:32:41.043Z,1019.96
2017-11-15T02:33:41.372Z,1019.92
2017-11-15T02:34:40.986Z,1019.90
2017-11-15T02:35:40.967Z,1020.07
2017-11-15T02:36:40.934Z,1019.90
2017-11-15T02:37:40.905Z,1019.94
2017-11-15T02:38:40.874Z,1019.87
2017-11-15T02:39:41.153Z,1019.89
2017-11-15T02:40:40.825Z,1019.91
2017-11-15T02:41:40.792Z,1019.99
2017-11-15T02:42:40.768Z,1019.90
2017-11-15T02:43:40.748Z,1019.80
2017-11-15T02:44:40.714Z,1019.93
2017-11-15T02:45:40.679Z,1019.92
2017-11-15T02:46:40.656Z,1019.83
2017-11-15T02:47:40.630Z,1019.80
2017-11-15T02:48:40.607Z,1019.91
2017-11-15T02:49:40.573Z,1019.88
2017-11-15T02:50:40.540Z,1019.86
2017-11-15T02:51:40.528Z,1019.88
2017-11-15T02:52:40.489Z,1019.89
2017-11-15T02:53:40.459Z,1019.85
2017-11-15T02:54:40.435Z,1019.77
2017-11-15T02:55:40.402Z,1019.78
2017-11-15T02:56:40.672Z,1019.82
2017-11-15T02:57:40.352Z,1019.79
2017-11-15T02:58:40.319Z,1019.80
2017-11-15T02:59:40.295Z,1019.78
2017-11-15T03:00:40.265Z,1019.73
2017-11-15T03:01:40.243Z,1019.77
2017-11-15T03:02:40.460Z,1019.84
2017-11-15T03:03:40.182Z,1019.80
2017-11-15T03:04:40.156Z,1019.75
2017-11-15T03:05:40.124Z,1019.73
2017-11-15T03:06:40.101Z,1019.84
2017-11-15T03:07:40.069Z,1019.73
2017-11-15T03:09:40.035Z,1019.71
2017-11-15T03:10:39.987Z,1019.89
2017-11-15T03:11:39.965Z,1019.75
2017-11-15T03:12:39.928Z,1019.78
2017-11-15T03:13:39.903Z,1019.81
2017-11-15T03:14:40.173Z,1019.73
2017-11-15T03:15:39.851Z,1019.81
2017-11-15T03:16:39.822Z,1019.75
2017-11-15T03:17:39.795Z,1019.80
2017-11-15T03:18:39.770Z,1019.77
2017-11-15T03:19:39.738Z,1019.80
2017-11-15T03:20:39.716Z,1019.84
2017-11-15T03:21:39.693Z,1019.82
2017-11-15T03:22:39.652Z,1019.83
2017-11-15T03:23:39.628Z,1019.83
2017-11-15T03:24:39.594Z,1019.81
2017-11-15T03:25:39.575Z,1019.71
2017-11-15T03:26:39.858Z,1019.74
2017-11-15T03:27:39.517Z,1019.82
2017-11-15T03:28:39.488Z,1019.75
2017-11-15T03:29:39.471Z,1019.82
2017-11-15T03:30:39.459Z,1019.81
2017-11-15T03:31:39.401Z,1019.84
2017-11-15T03:32:39.382Z,1019.88
2017-11-15T03:33:39.350Z,1019.84
2017-11-15T03:34:39.315Z,1019.80
2017-11-15T03:35:39.300Z,1019.79
2017-11-15T03:36:39.263Z,1019.81
2017-11-15T03:37:39.241Z,1019.80
2017-11-15T03:38:39.212Z,1019.82
2017-11-15T03:39:39.177Z,1019.80
2017-11-15T03:40:39.148Z,1019.83
2017-11-15T03:41:39.122Z,1019.84
2017-11-15T03:42:39.092Z,1019.74
2017-11-15T03:43:39.070Z,1019.72
2017-11-15T03:44:39.038Z,1019.78
2017-11-15T03:45:39.012Z,1019.77
2017-11-15T03:46:38.982Z,1019.78
2017-11-15T03:47:38.966Z,1019.73
2017-11-15T03:48:38.936Z,1019.70
2017-11-15T03:49:39.201Z,1019.78
2017-11-15T03:50:38.877Z,1019.76
2017-11-15T03:51:38.847Z,1019.78
2017-11-15T03:52:38.818Z,1019.69
2017-11-15T03:53:38.786Z,1019.76
2017-11-15T03:54:38.763Z,1019.73
2017-11-15T03:55:38.990Z,1019.78
2017-11-15T03:56:38.709Z,1019.75
2017-11-15T03:57:38.677Z,1019.83
2017-11-15T03:58:38.654Z,1019.79
2017-11-15T03:59:38.629Z,1019.78
2017-11-15T04:00:38.605Z,1019.79
2017-11-15T04:01:38.568Z,1019.78
2017-11-15T04:02:38.536Z,1019.79
2017-11-15T04:03:38.515Z,1019.72
2017-11-15T04:04:38.489Z,1019.72
2017-11-15T04:05:38.454Z,1019.66
2017-11-15T04:06:38.429Z,1019.61
2017-11-15T04:07:38.755Z,1019.76
2017-11-15T04:08:38.373Z,1019.73
2017-11-15T04:09:38.345Z,1019.81
2017-11-15T04:10:38.320Z,1019.75
2017-11-15T04:11:38.284Z,1019.73
2017-11-15T04:12:38.262Z,1019.72
2017-11-15T04:13:38.229Z,1019.80
2017-11-15T04:14:38.206Z,1019.55
2017-11-15T04:15:38.177Z,1019.66
2017-11-15T04:16:38.149Z,1019.64
2017-11-15T04:17:38.122Z,1019.53
2017-11-15T04:18:38.095Z,1019.65
2017-11-15T04:19:38.068Z,1019.58
2017-11-15T04:20:38.049Z,1019.71
2017-11-15T04:21:38.008Z,1019.75
2017-11-15T04:22:37.989Z,1019.65
2017-11-15T04:23:37.952Z,1019.69
2017-11-15T04:24:37.930Z,1019.72
2017-11-15T04:25:38.152Z,1019.71
2017-11-15T04:26:37.873Z,1019.69
2017-11-15T04:27:37.843Z,1019.78
2017-11-15T04:28:37.820Z,1019.68
2017-11-15T04:29:37.787Z,1019.68
2017-11-15T04:30:37.761Z,1019.65
2017-11-15T04:31:37.732Z,1019.73
2017-11-15T04:32:37.706Z,1019.57
2017-11-15T04:33:37.676Z,1019.57
2017-11-15T04:34:37.648Z,1019.61
2017-11-15T04:35:37.867Z,1019.67
2017-11-15T04:36:37.604Z,1019.70
2017-11-15T04:37:37.566Z,1019.71
2017-11-15T04:38:37.596Z,1019.72
2017-11-15T04:39:37.506Z,1019.74
2017-11-15T04:40:37.483Z,1019.71
2017-11-15T04:41:37.448Z,1019.74
2017-11-15T04:42:37.424Z,1019.63
2017-11-15T04:43:37.402Z,1019.68
2017-11-15T04:44:37.370Z,1019.65
2017-11-15T04:45:37.354Z,1019.63
2017-11-15T04:46:37.312Z,1019.59
2017-11-15T04:47:37.598Z,1019.71
2017-11-15T04:48:37.259Z,1019.64
2017-11-15T04:49:37.229Z,1019.70
2017-11-15T04:50:37.202Z,1019.76
2017-11-15T04:51:37.178Z,1019.68
2017-11-15T04:52:37.152Z,1019.63
2017-11-15T04:53:37.929Z,1019.66
2017-11-15T04:54:37.089Z,1019.67
2017-11-15T04:55:37.065Z,1019.78
2017-11-15T04:56:37.041Z,1019.64
2017-11-15T04:57:37.006Z,1019.61
2017-11-15T04:58:36.975Z,1019.79
2017-11-15T04:59:36.957Z,1019.73
2017-11-15T05:00:36.931Z,1019.70
2017-11-15T05:01:36.902Z,1019.60
2017-11-15T05:02:36.868Z,1019.52
2017-11-15T05:03:36.840Z,1019.70
2017-11-15T05:04:36.812Z,1019.58
2017-11-15T05:05:37.080Z,1019.54
2017-11-15T05:06:36.755Z,1019.65
2017-11-15T05:07:36.726Z,1019.69
2017-11-15T05:08:36.708Z,1019.72
2017-11-15T05:09:36.676Z,1019.81
2017-11-15T05:10:36.656Z,1019.77
2017-11-15T05:11:36.867Z,1019.79
2017-11-15T05:12:36.589Z,1019.73
2017-11-15T05:13:36.565Z,1019.82
2017-11-15T05:14:36.528Z,1019.82
2017-11-15T05:15:36.504Z,1019.75
2017-11-15T05:16:36.475Z,1019.79
2017-11-15T05:17:36.449Z,1019.76
2017-11-15T05:18:36.423Z,1019.60
2017-11-15T05:19:36.389Z,1019.83
2017-11-15T05:20:36.366Z,1019.83
2017-11-15T05:21:36.332Z,1019.93
2017-11-15T05:22:36.310Z,1019.80
2017-11-15T05:23:36.294Z,1019.96
2017-11-15T05:24:36.251Z,1019.92
2017-11-15T05:25:36.223Z,1019.94
2017-11-15T05:26:36.200Z,1019.91
2017-11-15T05:27:36.178Z,1019.90
2017-11-15T05:28:36.145Z,1019.74
2017-11-15T05:29:36.117Z,1019.89
2017-11-15T05:30:36.089Z,1019.82
2017-11-15T05:31:36.061Z,1019.86
2017-11-15T05:32:36.029Z,1019.82
2017-11-15T05:33:36.002Z,1019.80
2017-11-15T05:34:35.977Z,1019.83
2017-11-15T05:35:35.949Z,1019.78
2017-11-15T05:36:35.920Z,1019.81
2017-11-15T05:37:35.893Z,1019.80
2017-11-15T05:38:35.859Z,1019.87
2017-11-15T05:39:35.833Z,1019.82
2017-11-15T05:40:35.806Z,1019.85
2017-11-15T05:41:36.084Z,1019.83
2017-11-15T05:42:35.756Z,1019.82
2017-11-15T05:43:35.726Z,1019.81
2017-11-15T05:44:35.700Z,1019.83
2017-11-15T05:45:35.671Z,1019.83
2017-11-15T05:46:35.638Z,1019.91
2017-11-15T05:47:35.611Z,1019.86
2017-11-15T05:48:35.583Z,1019.87
2017-11-15T05:49:35.557Z,1019.75
2017-11-15T05:50:35.529Z,1019.86
2017-11-15T05:51:35.501Z,1019.85
2017-11-15T05:52:35.473Z,1019.91
2017-11-15T05:53:35.696Z,1019.86
2017-11-15T05:54:35.420Z,1019.79
2017-11-15T05:55:35.393Z,1019.86
2017-11-15T05:56:35.363Z,1019.83
2017-11-15T05:57:35.342Z,1019.79
2017-11-15T05:58:35.326Z,1019.90
2017-11-15T05:59:35.283Z,1019.94
2017-11-15T06:00:35.263Z,1019.88
2017-11-15T06:01:35.224Z,1019.82
2017-11-15T06:02:35.195Z,1019.91
2017-11-15T06:03:35.169Z,1019.87
2017-11-15T06:04:35.143Z,1019.71
2017-11-15T06:05:35.115Z,1019.82
2017-11-15T06:06:35.089Z,1019.95
2017-11-15T06:07:35.067Z,1019.96
2017-11-15T06:08:35.040Z,1019.97
2017-11-15T06:09:35.112Z,1019.96
2017-11-15T06:10:34.994Z,1019.82
2017-11-15T06:11:35.048Z,1019.82
2017-11-15T06:12:34.947Z,1019.87
2017-11-15T06:13:34.928Z,1019.77
2017-11-15T06:14:34.946Z,1019.80
2017-11-15T06:15:34.905Z,1019.91
2017-11-15T06:16:34.905Z,1019.94
2017-11-15T06:17:34.792Z,1020.03
2017-11-15T06:18:34.772Z,1019.98
2017-11-15T06:19:34.727Z,1019.97
2017-11-15T06:20:34.763Z,1019.90
2017-11-15T06:21:34.732Z,1019.97
2017-11-15T06:22:35.011Z,1019.99
2017-11-15T06:23:34.735Z,1019.94
2017-11-15T06:24:34.615Z,1019.88
2017-11-15T06:25:34.681Z,1019.96
2017-11-15T06:26:34.544Z,1020.00
2017-11-15T06:27:34.611Z,1019.96
2017-11-15T06:28:34.554Z,1019.92
2017-11-15T06:29:34.560Z,1020.00
2017-11-15T06:30:34.471Z,1019.97
2017-11-15T06:31:34.426Z,1020.06
2017-11-15T06:32:34.474Z,1020.04
2017-11-15T06:33:34.449Z,1020.06
2017-11-15T06:34:34.343Z,1020.06
2017-11-15T06:35:34.318Z,1020.04
2017-11-15T06:36:34.383Z,1020.11
2017-11-15T06:37:34.295Z,1020.04
2017-11-15T06:38:34.197Z,1020.09
2017-11-15T06:39:34.180Z,1020.16
2017-11-15T06:40:34.396Z,1020.04
2017-11-15T06:41:34.118Z,1020.08
2017-11-15T06:42:34.093Z,1019.97
2017-11-15T06:43:34.062Z,1020.18
2017-11-15T06:44:34.036Z,1020.01
2017-11-15T06:45:34.014Z,1020.04
2017-11-15T06:46:33.989Z,1020.13
2017-11-15T06:47:33.977Z,1020.11
2017-11-15T06:48:33.931Z,1020.06
2017-11-15T06:49:33.893Z,1020.26
2017-11-15T06:50:33.870Z,1020.23
2017-11-15T06:51:33.845Z,1020.18
2017-11-15T06:52:33.826Z,1020.15
2017-11-15T06:53:33.788Z,1020.32
2017-11-15T06:54:33.759Z,1020.30
2017-11-15T06:55:33.730Z,1020.27
2017-11-15T06:56:33.710Z,1020.20
2017-11-15T06:57:33.678Z,1020.23
2017-11-15T06:58:33.763Z,1020.26
2017-11-15T06:59:33.626Z,1020.23
2017-11-15T07:00:33.599Z,1020.17
2017-11-15T07:01:33.566Z,1020.26
2017-11-15T07:02:33.547Z,1020.21
2017-11-15T07:03:33.514Z,1020.29
2017-11-15T07:04:33.488Z,1020.29
2017-11-15T07:05:33.453Z,1020.30
2017-11-15T07:06:33.439Z,1020.22
2017-11-15T07:07:33.403Z,1020.31
2017-11-15T07:08:33.371Z,1020.30
2017-11-15T07:09:33.600Z,1020.34
2017-11-15T07:10:33.324Z,1020.39
2017-11-15T07:11:33.290Z,1020.36
2017-11-15T07:12:33.265Z,1020.37
2017-11-15T07:13:33.237Z,1020.39
2017-11-15T07:14:33.219Z,1020.38
2017-11-15T07:15:33.178Z,1020.42
2017-11-15T07:16:33.161Z,1020.38
2017-11-15T07:17:33.125Z,1020.37
2017-11-15T07:18:33.096Z,1020.43
2017-11-15T07:19:33.068Z,1020.51
2017-11-15T07:20:33.044Z,1020.46
2017-11-15T07:21:33.022Z,1020.43
2017-11-15T07:22:33.006Z,1020.44
2017-11-15T07:23:32.964Z,1020.42
2017-11-15T07:24:32.935Z,1020.38
2017-11-15T07:25:32.907Z,1020.39
2017-11-15T07:26:32.876Z,1020.49
2017-11-15T07:27:32.853Z,1020.39
2017-11-15T07:28:32.830Z,1020.38
2017-11-15T07:29:32.798Z,1020.49
2017-11-15T07:30:32.775Z,1020.42
2017-11-15T07:31:32.739Z,1020.49
2017-11-15T07:32:32.717Z,1020.51
2017-11-15T07:33:32.699Z,1020.49
2017-11-15T07:34:32.662Z,1020.58
2017-11-15T07:35:32.634Z,1020.50
2017-11-15T07:36:32.612Z,1020.69
2017-11-15T07:37:32.575Z,1020.53
2017-11-15T07:38:32.552Z,1020.51
2017-11-15T07:39:32.518Z,1020.63
2017-11-15T07:40:32.498Z,1020.62
2017-11-15T07:41:32.462Z,1020.56
2017-11-15T07:42:32.445Z,1020.61
2017-11-15T07:43:32.420Z,1020.61
2017-11-15T07:44:32.389Z,1020.61
2017-11-15T07:45:32.662Z,1020.64
2017-11-15T07:46:32.333Z,1020.52
2017-11-15T07:47:32.299Z,1020.60
2017-11-15T07:48:32.284Z,1020.57
2017-11-15T07:49:32.249Z,1020.64
2017-11-15T07:50:32.221Z,1020.58
2017-11-15T07:51:32.204Z,1020.70
2017-11-15T07:52:32.171Z,1020.67
2017-11-15T07:53:32.135Z,1020.62
2017-11-15T07:54:32.114Z,1020.52
2017-11-15T07:55:32.095Z,1020.64
2017-11-15T07:56:32.055Z,1020.64
2017-11-15T07:57:32.033Z,1020.67
2017-11-15T07:58:32.004Z,1020.70
2017-11-15T07:59:31.969Z,1020.65
2017-11-15T08:00:31.948Z,1020.71
2017-11-15T08:01:31.925Z,1020.68
2017-11-15T08:02:31.892Z,1020.67
2017-11-15T08:03:31.870Z,1020.69
2017-11-15T08:04:31.836Z,1020.63
2017-11-15T08:05:31.808Z,1020.70
2017-11-15T08:06:31.778Z,1020.75
2017-11-15T08:07:31.756Z,1020.74
2017-11-15T08:08:32.033Z,1020.74
2017-11-15T08:09:31.702Z,1020.79
2017-11-15T08:10:31.669Z,1020.75
2017-11-15T08:11:31.645Z,1020.75
2017-11-15T08:12:31.619Z,1020.70
2017-11-15T08:13:31.595Z,1020.77
2017-11-15T08:14:31.812Z,1020.82
2017-11-15T08:15:31.533Z,1020.84
2017-11-15T08:16:31.510Z,1020.89
2017-11-15T08:17:31.490Z,1020.86
2017-11-15T08:18:31.449Z,1020.95
2017-11-15T08:19:31.429Z,1020.89
2017-11-15T08:20:31.496Z,1020.92
2017-11-15T08:21:31.369Z,1020.87
2017-11-15T08:22:31.346Z,1020.96
2017-11-15T08:23:31.319Z,1020.90
2017-11-15T08:24:31.294Z,1020.93
2017-11-15T08:25:31.261Z,1020.91
2017-11-15T08:26:31.234Z,1020.92
2017-11-15T08:27:31.210Z,1020.86
2017-11-15T08:28:31.201Z,1020.92
2017-11-15T08:29:31.156Z,1020.97
2017-11-15T08:30:31.133Z,1020.93
2017-11-15T08:31:31.097Z,1020.94
2017-11-15T08:32:31.326Z,1020.90
2017-11-15T08:33:31.046Z,1020.99
2017-11-15T08:34:31.019Z,1020.95
2017-11-15T08:35:30.992Z,1020.99
2017-11-15T08:36:30.968Z,1020.99
2017-11-15T08:37:30.933Z,1021.02
2017-11-15T08:38:30.908Z,1021.02
2017-11-15T08:39:30.886Z,1021.04
2017-11-15T08:40:30.855Z,1021.01
2017-11-15T08:41:30.826Z,1021.06
2017-11-15T08:42:30.799Z,1021.09
2017-11-15T08:43:30.772Z,1021.07
2017-11-15T08:44:31.049Z,1021.13
2017-11-15T08:45:30.713Z,1021.15
2017-11-15T08:46:30.709Z,1021.15
2017-11-15T08:47:30.662Z,1021.17
2017-11-15T08:48:30.633Z,1021.16
2017-11-15T08:49:30.606Z,1021.18
2017-11-15T08:50:30.580Z,1021.09
2017-11-15T08:51:30.556Z,1021.25
2017-11-15T08:52:30.550Z,1021.25
2017-11-15T08:53:30.509Z,1021.26
2017-11-15T08:54:30.479Z,1021.19
2017-11-15T08:55:30.457Z,1021.16
2017-11-15T08:56:30.421Z,1021.17
2017-11-15T08:57:30.388Z,1021.11
2017-11-15T08:58:30.369Z,1021.15
2017-11-15T08:59:30.340Z,1021.20
2017-11-15T09:00:30.308Z,1021.12
2017-11-15T09:01:30.285Z,1021.25
2017-11-15T09:02:30.253Z,1021.20
2017-11-15T09:03:30.228Z,1021.21
2017-11-15T09:04:30.211Z,1021.23
2017-11-15T09:05:30.172Z,1021.23
2017-11-15T09:06:30.148Z,1021.22
2017-11-15T09:07:30.124Z,1021.21
2017-11-15T09:08:30.093Z,1021.21
2017-11-15T09:09:30.070Z,1021.19
2017-11-15T09:10:30.045Z,1021.17
2017-11-15T09:11:30.015Z,1021.32
2017-11-15T09:12:29.988Z,1021.22
2017-11-15T09:13:29.961Z,1021.26
2017-11-15T09:14:29.932Z,1021.23
2017-11-15T09:15:29.917Z,1021.25
2017-11-15T09:16:29.876Z,1021.23
2017-11-15T09:17:29.853Z,1021.19
2017-11-15T09:18:29.832Z,1021.26
2017-11-15T09:19:29.799Z,1021.24
2017-11-15T09:20:29.771Z,1021.30
2017-11-15T09:21:29.746Z,1021.25
2017-11-15T09:22:29.716Z,1021.25
2017-11-15T09:23:29.691Z,1021.26
2017-11-15T09:24:29.663Z,1021.29
2017-11-15T09:25:29.645Z,1021.22
2017-11-15T09:26:29.616Z,1021.25
2017-11-15T09:27:29.581Z,1021.24
2017-11-15T09:28:29.559Z,1021.29
2017-11-15T09:29:29.530Z,1021.27
2017-11-15T09:30:29.511Z,1021.30
2017-11-15T09:31:29.473Z,1021.27
2017-11-15T09:32:29.452Z,1021.33
2017-11-15T09:33:29.417Z,1021.32
2017-11-15T09:34:29.398Z,1021.29
2017-11-15T09:35:29.367Z,1021.34
2017-11-15T09:36:29.338Z,1021.34
2017-11-15T09:37:29.315Z,1021.40
2017-11-15T09:38:29.286Z,1021.38
2017-11-15T09:39:29.261Z,1021.37
2017-11-15T09:40:29.232Z,1021.32
2017-11-15T09:41:29.209Z,1021.31
2017-11-15T09:42:29.186Z,1021.33
2017-11-15T09:43:29.147Z,1021.29
2017-11-15T09:44:29.128Z,1021.28
2017-11-15T09:45:29.097Z,1021.33
2017-11-15T09:46:29.071Z,1021.33
2017-11-15T09:47:29.050Z,1021.35
2017-11-15T09:48:29.017Z,1021.32
2017-11-15T09:49:28.986Z,1021.36
2017-11-15T09:50:28.964Z,1021.39
2017-11-15T09:51:28.935Z,1021.31
2017-11-15T09:52:28.921Z,1021.35
2017-11-15T09:53:28.878Z,1021.40
2017-11-15T09:54:28.868Z,1021.39
2017-11-15T09:55:28.826Z,1021.43
2017-11-15T09:56:28.806Z,1021.48
2017-11-15T09:57:28.774Z,1021.45
2017-11-15T09:58:28.747Z,1021.52
2017-11-15T09:59:28.724Z,1021.50
2017-11-15T10:00:28.692Z,1021.56
2017-11-15T10:01:28.664Z,1021.50
2017-11-15T10:02:28.637Z,1021.59
2017-11-15T10:03:28.615Z,1021.58
2017-11-15T10:04:28.580Z,1021.52
2017-11-15T10:05:28.555Z,1021.56
2017-11-15T10:06:28.529Z,1021.55
2017-11-15T10:07:28.511Z,1021.55
2017-11-15T10:08:28.477Z,1021.52
2017-11-15T10:09:28.448Z,1021.50
2017-11-15T10:10:28.422Z,1021.60
2017-11-15T10:11:28.397Z,1021.53
2017-11-15T10:12:28.616Z,1021.45
2017-11-15T10:13:28.349Z,1021.57
2017-11-15T10:14:28.320Z,1021.50
2017-11-15T10:15:28.288Z,1021.52
2017-11-15T10:16:28.270Z,1021.49
2017-11-15T10:17:28.234Z,1021.54
2017-11-15T10:18:28.212Z,1021.46
2017-11-15T10:19:28.183Z,1021.57
2017-11-15T10:20:28.158Z,1021.49
2017-11-15T10:21:28.130Z,1021.56
2017-11-15T10:22:28.098Z,1021.54
2017-11-15T10:23:28.069Z,1021.55
2017-11-15T10:24:28.042Z,1021.56
2017-11-15T10:25:28.028Z,1021.55
2017-11-15T10:26:27.996Z,1021.56
2017-11-15T10:27:27.963Z,1021.53
2017-11-15T10:28:27.941Z,1021.56
2017-11-15T10:29:27.910Z,1021.53
2017-11-15T10:30:27.879Z,1021.59
2017-11-15T10:31:27.864Z,1021.56
2017-11-15T10:32:27.838Z,1021.60
2017-11-15T10:33:27.834Z,1021.60
2017-11-15T10:34:27.772Z,1021.65
2017-11-15T10:35:27.749Z,1021.59
2017-11-15T10:36:27.990Z,1021.59
2017-11-15T10:37:27.700Z,1021.65
2017-11-15T10:38:27.671Z,1021.66
2017-11-15T10:39:27.656Z,1021.68
2017-11-15T10:40:27.611Z,1021.68
2017-11-15T10:41:27.587Z,1021.60
2017-11-15T10:42:27.570Z,1021.58
2017-11-15T10:43:27.536Z,1021.58
2017-11-15T10:44:27.513Z,1021.56
2017-11-15T10:45:27.486Z,1021.62
2017-11-15T10:46:27.453Z,1021.56
2017-11-15T10:47:27.427Z,1021.61
2017-11-15T10:48:27.417Z,1021.60
2017-11-15T10:49:27.377Z,1021.58
2017-11-15T10:50:27.349Z,1021.60
2017-11-15T10:51:27.318Z,1021.53
2017-11-15T10:52:27.589Z,1021.57
2017-11-15T10:53:27.266Z,1021.59
2017-11-15T10:54:27.243Z,1021.47
2017-11-15T10:55:27.214Z,1021.58
2017-11-15T10:56:27.185Z,1021.58
2017-11-15T10:57:27.167Z,1021.59
2017-11-15T10:58:27.132Z,1021.59
2017-11-15T10:59:27.101Z,1021.59
2017-11-15T11:00:27.081Z,1021.60
2017-11-15T11:01:27.052Z,1021.60
2017-11-15T11:02:27.023Z,1021.62
2017-11-15T11:03:27.001Z,1021.64
2017-11-15T11:04:26.972Z,1021.51
2017-11-15T11:05:26.954Z,1021.57
2017-11-15T11:06:26.918Z,1021.54
2017-11-15T11:07:27.098Z,1021.55
2017-11-15T11:08:26.859Z,1021.57
2017-11-15T11:09:26.836Z,1021.52
2017-11-15T11:10:27.066Z,1021.59
2017-11-15T11:11:26.781Z,1021.48
2017-11-15T11:12:26.762Z,1021.56
2017-11-15T11:13:26.726Z,1021.53
2017-11-15T11:14:26.700Z,1021.60
2017-11-15T11:15:26.678Z,1021.49
2017-11-15T11:16:26.652Z,1021.50
2017-11-15T11:17:26.619Z,1021.50
2017-11-15T11:18:26.596Z,1021.53
2017-11-15T11:19:26.566Z,1021.50
2017-11-15T11:20:26.542Z,1021.53
2017-11-15T11:21:26.524Z,1021.58
2017-11-15T11:22:26.489Z,1021.43
2017-11-15T11:23:26.465Z,1021.48
2017-11-15T11:24:26.441Z,1021.47
2017-11-15T11:25:26.416Z,1021.47
2017-11-15T11:26:26.378Z,1021.48
2017-11-15T11:27:26.355Z,1021.52
2017-11-15T11:28:26.527Z,1021.50
2017-11-15T11:29:26.308Z,1021.59
2017-11-15T11:30:26.274Z,1021.52
2017-11-15T11:31:26.253Z,1021.53
2017-11-15T11:32:26.233Z,1021.42
2017-11-15T11:33:26.199Z,1021.45
2017-11-15T11:34:26.165Z,1021.47
2017-11-15T11:35:26.146Z,1021.38
2017-11-15T11:36:26.117Z,1021.39
2017-11-15T11:37:26.090Z,1021.34
2017-11-15T11:38:26.061Z,1021.40
2017-11-15T11:39:26.035Z,1021.26
2017-11-15T11:40:26.815Z,1021.40
2017-11-15T11:41:25.977Z,1021.51
2017-11-15T11:42:25.954Z,1021.38
2017-11-15T11:43:25.930Z,1021.45
2017-11-15T11:44:25.896Z,1021.48
2017-11-15T11:45:25.871Z,1021.51
2017-11-15T11:46:25.842Z,1021.52
2017-11-15T11:47:25.819Z,1021.51
2017-11-15T11:48:25.793Z,1021.53
2017-11-15T11:49:25.766Z,1021.52
2017-11-15T11:50:25.742Z,1021.47
2017-11-15T11:51:25.710Z,1021.52
2017-11-15T11:52:25.696Z,1021.44
2017-11-15T11:53:25.657Z,1021.35
2017-11-15T11:54:25.644Z,1021.51
2017-11-15T11:55:25.617Z,1021.46
2017-11-15T11:56:25.579Z,1021.49
2017-11-15T11:57:25.551Z,1021.53
2017-11-15T11:58:25.520Z,1021.44
2017-11-15T11:59:25.496Z,1021.47
2017-11-15T12:00:25.476Z,1021.47
2017-11-15T12:01:25.444Z,1021.54
2017-11-15T12:02:25.419Z,1021.53
2017-11-15T12:03:25.389Z,1021.51
2017-11-15T12:04:25.372Z,1021.53
2017-11-15T12:05:25.338Z,1021.52
2017-11-15T12:06:25.317Z,1021.47